createdAt,value
2023-03-22T00:00:39.988Z,40.70
2023-03-22T00:01:39.675Z,41.50
2023-03-22T00:02:39.694Z,39.80
2023-03-22T00:03:39.659Z,44.50
2023-03-22T00:04:39.661Z,45.70
2023-03-22T00:05:39.602Z,47.90
2023-03-22T00:06:39.622Z,43.70
2023-03-22T00:07:39.592Z,43.40
2023-03-22T00:08:39.570Z,42.90
2023-03-22T00:09:39.612Z,43.50
2023-03-22T00:10:39.918Z,46.90
2023-03-22T00:11:39.547Z,45.00
2023-03-22T00:12:39.538Z,46.10
2023-03-22T00:13:39.529Z,43.40
2023-03-22T00:14:39.529Z,48.50
2023-03-22T00:15:39.589Z,46.20
2023-03-22T00:16:39.522Z,46.90
2023-03-22T00:17:39.483Z,48.20
2023-03-22T00:18:39.475Z,50.50
2023-03-22T00:19:39.488Z,49.10
2023-03-22T00:20:39.741Z,51.00
2023-03-22T00:21:39.450Z,47.20
2023-03-22T00:22:39.448Z,49.20
2023-03-22T00:23:39.431Z,48.80
2023-03-22T00:24:39.445Z,48.60
2023-03-22T00:25:39.407Z,50.90
2023-03-22T00:26:39.418Z,49.80
2023-03-22T00:27:39.407Z,49.70
2023-03-22T00:28:39.391Z,48.00
2023-03-22T00:29:39.421Z,50.70
2023-03-22T00:30:39.693Z,49.90
2023-03-22T00:31:39.419Z,48.90
2023-03-22T00:32:39.377Z,52.20
2023-03-22T00:33:39.352Z,47.40
2023-03-22T00:34:39.351Z,52.60
2023-03-22T00:35:39.372Z,49.60
2023-03-22T00:36:39.305Z,53.40
2023-03-22T00:37:39.311Z,65.00
2023-03-22T00:38:45.549Z,52.70
2023-03-22T00:39:41.310Z,51.10
2023-03-22T00:40:40.441Z,53.10
2023-03-22T00:41:39.262Z,55.10
2023-03-22T00:42:39.249Z,48.90
2023-03-22T00:43:39.245Z,55.00
2023-03-22T00:44:39.266Z,54.60
2023-03-22T00:45:39.219Z,57.00
2023-03-22T00:46:39.222Z,54.90
2023-03-22T00:47:39.202Z,56.50
2023-03-22T00:48:39.183Z,52.70
2023-03-22T00:49:39.202Z,54.30
2023-03-22T00:50:39.395Z,51.20
2023-03-22T00:51:39.147Z,55.00
2023-03-22T00:52:39.145Z,60.20
2023-03-22T00:53:42.424Z,58.40
2023-03-22T00:54:39.129Z,58.40
2023-03-22T00:55:39.138Z,59.20
2023-03-22T00:56:39.120Z,56.80
2023-03-22T00:57:39.128Z,63.10
2023-03-22T00:58:39.101Z,63.70
2023-03-22T00:59:39.082Z,59.90
2023-03-22T01:00:39.441Z,60.10
2023-03-22T01:01:39.063Z,61.40
2023-03-22T01:02:39.051Z,59.10
2023-03-22T01:03:39.068Z,63.80
2023-03-22T01:04:39.053Z,67.90
2023-03-22T01:05:39.061Z,62.90
2023-03-22T01:06:39.007Z,63.30
2023-03-22T01:07:39.007Z,62.20
2023-03-22T01:08:39.412Z,63.30
2023-03-22T01:09:38.985Z,63.70
2023-03-22T01:10:39.201Z,65.10
2023-03-22T01:11:38.948Z,65.60
2023-03-22T01:12:38.944Z,62.40
2023-03-22T01:13:38.940Z,63.40
2023-03-22T01:14:38.929Z,61.50
2023-03-22T01:15:38.960Z,61.30
2023-03-22T01:16:38.961Z,64.40
2023-03-22T01:17:38.901Z,62.50
2023-03-22T01:18:38.892Z,67.00
2023-03-22T01:19:38.882Z,62.00
2023-03-22T01:20:39.293Z,62.10
2023-03-22T01:21:38.871Z,61.20
2023-03-22T01:22:38.853Z,61.10
2023-03-22T01:23:38.849Z,60.90
2023-03-22T01:24:38.843Z,65.80
2023-03-22T01:25:38.844Z,64.60
2023-03-22T01:26:38.809Z,64.20
2023-03-22T01:27:38.806Z,64.50
2023-03-22T01:28:38.785Z,64.30
2023-03-22T01:29:38.786Z,64.10
2023-03-22T01:30:39.078Z,63.20
2023-03-22T01:31:38.768Z,63.40
2023-03-22T01:32:38.763Z,63.30
2023-03-22T01:33:38.778Z,66.40
2023-03-22T01:34:38.729Z,67.60
2023-03-22T01:35:38.769Z,64.60
2023-03-22T01:36:38.712Z,62.40
2023-03-22T01:37:38.706Z,64.30
2023-03-22T01:38:38.715Z,63.40
2023-03-22T01:39:38.724Z,63.30
2023-03-22T01:40:39.023Z,62.80
2023-03-22T01:41:38.672Z,63.70
2023-03-22T01:42:38.674Z,65.20
2023-03-22T01:43:38.658Z,60.40
2023-03-22T01:44:38.639Z,65.80
2023-03-22T01:45:38.680Z,62.40
2023-03-22T01:46:38.716Z,61.80
2023-03-22T01:47:38.610Z,64.90
2023-03-22T01:48:38.721Z,66.50
2023-03-22T01:49:38.593Z,61.00
2023-03-22T01:50:38.882Z,63.70
2023-03-22T01:51:38.574Z,64.70
2023-03-22T01:52:38.557Z,68.30
2023-03-22T01:53:38.556Z,70.00
2023-03-22T01:54:38.550Z,64.70
2023-03-22T01:55:38.560Z,68.80
2023-03-22T01:56:38.525Z,69.90
2023-03-22T01:57:38.517Z,72.30
2023-03-22T01:58:38.503Z,66.70
2023-03-22T01:59:38.500Z,67.50
2023-03-22T02:00:38.825Z,67.90
2023-03-22T02:01:38.497Z,69.70
2023-03-22T02:02:39.530Z,71.10
2023-03-22T02:03:38.452Z,68.80
2023-03-22T02:04:38.493Z,75.20
2023-03-22T02:05:38.469Z,72.60
2023-03-22T02:06:38.466Z,71.30
2023-03-22T02:07:38.420Z,73.20
2023-03-22T02:08:38.406Z,78.70
2023-03-22T02:09:38.397Z,75.20
2023-03-22T02:10:38.575Z,75.30
2023-03-22T02:11:38.374Z,82.30
2023-03-22T02:12:38.365Z,74.70
2023-03-22T02:13:38.364Z,77.30
2023-03-22T02:14:38.353Z,77.60
2023-03-22T02:15:39.428Z,81.50
2023-03-22T02:16:38.392Z,83.80
2023-03-22T02:17:38.326Z,83.00
2023-03-22T02:18:38.312Z,86.10
2023-03-22T02:19:38.303Z,80.70
2023-03-22T02:20:38.699Z,89.50
2023-03-22T02:21:38.275Z,85.30
2023-03-22T02:22:38.277Z,87.00
2023-03-22T02:23:38.260Z,81.70
2023-03-22T02:24:38.278Z,87.50
2023-03-22T02:25:38.295Z,89.10
2023-03-22T02:26:38.234Z,90.30
2023-03-22T02:27:38.242Z,91.30
2023-03-22T02:28:38.234Z,85.60
2023-03-22T02:29:38.207Z,90.50
2023-03-22T02:30:38.554Z,88.60
2023-03-22T02:31:38.255Z,89.50
2023-03-22T02:32:38.190Z,91.20
2023-03-22T02:33:40.449Z,97.00
2023-03-22T02:34:38.148Z,93.40
2023-03-22T02:35:38.184Z,94.80
2023-03-22T02:36:38.131Z,95.40
2023-03-22T02:37:38.138Z,90.90
2023-03-22T02:38:38.113Z,93.00
2023-03-22T02:39:38.105Z,94.80
2023-03-22T02:40:38.512Z,90.30
2023-03-22T02:41:38.094Z,97.20
2023-03-22T02:42:38.084Z,97.90
2023-03-22T02:43:38.078Z,97.90
2023-03-22T02:44:38.050Z,97.80
2023-03-22T02:45:38.071Z,97.40
2023-03-22T02:46:38.088Z,102.00
2023-03-22T02:47:38.027Z,99.80
2023-03-22T02:48:38.009Z,94.80
2023-03-22T02:49:38.013Z,98.80
2023-03-22T02:50:38.435Z,98.60
2023-03-22T02:51:38.010Z,93.90
2023-03-22T02:52:37.972Z,100.80
2023-03-22T02:53:37.958Z,106.80
2023-03-22T02:54:37.948Z,97.60
2023-03-22T02:55:37.949Z,98.50
2023-03-22T02:56:37.953Z,98.90
2023-03-22T02:57:37.930Z,103.80
2023-03-22T02:58:37.915Z,102.80
2023-03-22T02:59:37.905Z,98.60
2023-03-22T03:00:38.408Z,102.20
2023-03-22T03:01:37.987Z,108.00
2023-03-22T03:02:37.872Z,103.80
2023-03-22T03:03:37.870Z,97.70
2023-03-22T03:04:37.860Z,101.00
2023-03-22T03:05:37.848Z,109.80
2023-03-22T03:06:37.853Z,102.80
2023-03-22T03:07:37.830Z,104.80
2023-03-22T03:08:37.813Z,106.20
2023-03-22T03:09:37.807Z,101.90
2023-03-22T03:10:38.191Z,106.60
2023-03-22T03:11:37.811Z,108.70
2023-03-22T03:12:37.781Z,105.20
2023-03-22T03:13:37.809Z,107.80
2023-03-22T03:14:37.759Z,107.30
2023-03-22T03:15:37.754Z,115.00
2023-03-22T03:16:37.822Z,111.60
2023-03-22T03:17:37.729Z,106.50
2023-03-22T03:18:37.721Z,107.00
2023-03-22T03:19:37.710Z,111.80
2023-03-22T03:20:38.304Z,108.40
2023-03-22T03:21:37.690Z,115.90
2023-03-22T03:22:37.680Z,110.90
2023-03-22T03:23:37.670Z,108.10
2023-03-22T03:24:37.670Z,113.10
2023-03-22T03:25:37.702Z,108.70
2023-03-22T03:26:37.649Z,109.00
2023-03-22T03:27:37.638Z,110.90
2023-03-22T03:28:37.656Z,110.00
2023-03-22T03:29:37.619Z,112.70
2023-03-22T03:30:37.949Z,110.80
2023-03-22T03:31:37.659Z,107.50
2023-03-22T03:32:37.584Z,115.20
2023-03-22T03:33:37.587Z,116.20
2023-03-22T03:34:37.562Z,116.20
2023-03-22T03:35:37.636Z,114.90
2023-03-22T03:36:37.541Z,116.80
2023-03-22T03:37:37.546Z,117.10
2023-03-22T03:38:37.517Z,109.10
2023-03-22T03:39:37.514Z,120.80
2023-03-22T03:40:37.988Z,116.80
2023-03-22T03:41:37.495Z,113.00
2023-03-22T03:42:37.497Z,115.00
2023-03-22T03:43:37.497Z,109.10
2023-03-22T03:44:37.493Z,113.50
2023-03-22T03:45:37.535Z,114.40
2023-03-22T03:46:37.437Z,112.40
2023-03-22T03:47:37.432Z,119.00
2023-03-22T03:48:37.422Z,120.30
2023-03-22T03:49:37.416Z,124.30
2023-03-22T03:50:37.691Z,114.00
2023-03-22T03:51:37.396Z,117.20
2023-03-22T03:52:37.378Z,118.50
2023-03-22T03:53:37.370Z,114.90
2023-03-22T03:54:37.368Z,114.20
2023-03-22T03:55:37.371Z,118.30
2023-03-22T03:56:37.350Z,111.00
2023-03-22T03:57:37.335Z,117.80
2023-03-22T03:58:37.343Z,119.10
2023-03-22T03:59:37.332Z,115.00
2023-03-22T04:00:37.464Z,121.90
2023-03-22T04:01:37.301Z,109.20
2023-03-22T04:02:37.376Z,112.50
2023-03-22T04:03:37.296Z,110.80
2023-03-22T04:05:09.172Z,115.00
2023-03-22T04:05:37.263Z,115.80
2023-03-22T04:06:37.245Z,108.50
2023-03-22T04:07:37.266Z,111.80
2023-03-22T04:08:37.228Z,108.50
2023-03-22T04:09:37.247Z,112.60
2023-03-22T04:10:37.455Z,112.70
2023-03-22T04:11:37.201Z,113.10
2023-03-22T04:12:37.212Z,111.50
2023-03-22T04:13:37.179Z,110.20
2023-03-22T04:14:37.169Z,109.80
2023-03-22T04:15:37.157Z,109.00
2023-03-22T04:16:37.206Z,106.40
2023-03-22T04:17:37.167Z,109.50
2023-03-22T04:18:37.139Z,112.40
2023-03-22T04:19:37.123Z,112.00
2023-03-22T04:20:37.453Z,115.60
2023-03-22T04:21:37.098Z,111.00
2023-03-22T04:22:37.085Z,112.10
2023-03-22T04:23:37.084Z,109.40
2023-03-22T04:24:37.075Z,109.10
2023-03-22T04:25:37.085Z,107.90
2023-03-22T04:26:37.090Z,116.70
2023-03-22T04:27:37.037Z,119.80
2023-03-22T04:28:37.035Z,115.40
2023-03-22T04:29:37.009Z,115.30
2023-03-22T04:30:37.147Z,114.80
2023-03-22T04:31:36.992Z,114.40
2023-03-22T04:32:36.983Z,117.90
2023-03-22T04:33:36.974Z,113.70
2023-03-22T04:34:36.960Z,119.70
2023-03-22T04:35:36.988Z,120.50
2023-03-22T04:36:36.955Z,118.50
2023-03-22T04:37:36.947Z,119.80
2023-03-22T04:38:36.931Z,120.60
2023-03-22T04:39:36.907Z,116.90
2023-03-22T04:40:38.527Z,127.90
2023-03-22T04:41:36.921Z,123.00
2023-03-22T04:42:36.882Z,126.90
2023-03-22T04:43:36.882Z,124.70
2023-03-22T04:44:36.870Z,125.80
2023-03-22T04:45:36.841Z,124.70
2023-03-22T04:46:37.892Z,128.50
2023-03-22T04:47:36.827Z,130.00
2023-03-22T04:48:36.834Z,129.30
2023-03-22T04:49:36.816Z,135.00
2023-03-22T04:50:36.943Z,132.00
2023-03-22T04:51:36.835Z,131.50
2023-03-22T04:52:36.784Z,132.40
2023-03-22T04:53:36.772Z,140.20
2023-03-22T04:54:36.757Z,135.50
2023-03-22T04:55:36.755Z,144.80
2023-03-22T04:56:36.789Z,133.80
2023-03-22T04:57:37.715Z,141.80
2023-03-22T04:58:36.745Z,137.40
2023-03-22T04:59:36.726Z,136.60
2023-03-22T05:00:36.721Z,142.20
2023-03-22T05:01:36.719Z,142.50
2023-03-22T05:02:36.745Z,146.60
2023-03-22T05:03:36.703Z,142.40
2023-03-22T05:04:36.658Z,136.60
2023-03-22T05:05:36.651Z,142.90
2023-03-22T05:06:36.648Z,144.20
2023-03-22T05:07:36.631Z,151.70
2023-03-22T05:08:36.676Z,140.60
2023-03-22T05:09:36.612Z,146.60
2023-03-22T05:10:36.594Z,144.40
2023-03-22T05:11:36.636Z,155.40
2023-03-22T05:12:36.602Z,152.50
2023-03-22T05:13:36.580Z,151.80
2023-03-22T05:14:36.649Z,148.30
2023-03-22T05:15:36.550Z,154.10
2023-03-22T05:16:37.557Z,154.90
2023-03-22T05:17:36.538Z,151.70
2023-03-22T05:18:36.519Z,160.90
2023-03-22T05:19:36.518Z,155.90
2023-03-22T05:20:36.514Z,147.90
2023-03-22T05:21:36.625Z,158.10
2023-03-22T05:22:36.480Z,145.00
2023-03-22T05:23:36.496Z,160.70
2023-03-22T05:24:36.455Z,158.80
2023-03-22T05:25:36.458Z,160.00
2023-03-22T05:26:36.482Z,156.10
2023-03-22T05:27:36.429Z,157.50
2023-03-22T05:28:36.416Z,161.30
2023-03-22T05:29:36.408Z,159.10
2023-03-22T05:30:36.431Z,156.00
2023-03-22T05:31:36.436Z,157.20
2023-03-22T05:32:36.382Z,151.10
2023-03-22T05:33:36.366Z,157.20
2023-03-22T05:34:36.350Z,157.10
2023-03-22T05:35:36.406Z,155.90
2023-03-22T05:36:36.403Z,162.40
2023-03-22T05:37:36.330Z,161.00
2023-03-22T05:38:36.333Z,164.60
2023-03-22T05:39:36.311Z,155.30
2023-03-22T05:40:36.307Z,164.50
2023-03-22T05:41:36.969Z,171.40
2023-03-22T05:42:37.279Z,156.30
2023-03-22T05:43:36.276Z,161.30
2023-03-22T05:44:36.261Z,158.60
2023-03-22T05:45:36.246Z,162.70
2023-03-22T05:46:36.293Z,161.60
2023-03-22T05:47:36.225Z,169.60
2023-03-22T05:48:36.215Z,170.60
2023-03-22T05:49:36.210Z,162.30
2023-03-22T05:50:36.219Z,163.50
2023-03-22T05:51:36.231Z,161.50
2023-03-22T05:52:36.181Z,165.70
2023-03-22T05:53:36.162Z,160.30
2023-03-22T05:54:36.151Z,165.50
2023-03-22T05:55:36.149Z,164.30
2023-03-22T05:56:36.200Z,175.10
2023-03-22T05:57:36.130Z,165.20
2023-03-22T05:58:36.110Z,173.30
2023-03-22T05:59:36.107Z,167.50
2023-03-22T06:00:36.092Z,172.80
2023-03-22T06:01:36.119Z,171.30
2023-03-22T06:02:36.079Z,168.90
2023-03-22T06:03:36.148Z,171.70
2023-03-22T06:04:36.052Z,161.60
2023-03-22T06:05:36.051Z,160.60
2023-03-22T06:06:36.093Z,169.50
2023-03-22T06:07:36.018Z,158.50
2023-03-22T06:08:36.018Z,148.10
2023-03-22T06:09:35.999Z,142.20
2023-03-22T06:10:36.014Z,142.50
2023-03-22T06:11:35.996Z,135.80
2023-03-22T06:12:36.945Z,137.50
2023-03-22T06:13:35.960Z,130.10
2023-03-22T06:14:35.965Z,127.20
2023-03-22T06:15:35.941Z,126.50
2023-03-22T06:16:36.038Z,120.50
2023-03-22T06:17:35.915Z,123.10
2023-03-22T06:18:35.917Z,118.50
2023-03-22T06:19:35.902Z,117.30
2023-03-22T06:20:35.948Z,116.40
2023-03-22T06:21:35.952Z,120.50
2023-03-22T06:22:35.901Z,116.10
2023-03-22T06:23:35.867Z,106.60
2023-03-22T06:24:35.873Z,105.60
2023-03-22T06:25:35.892Z,112.70
2023-03-22T06:26:35.907Z,104.30
2023-03-22T06:27:35.830Z,102.00
2023-03-22T06:28:35.851Z,100.70
2023-03-22T06:29:35.807Z,98.40
2023-03-22T06:30:35.817Z,96.70
2023-03-22T06:31:35.852Z,99.60
2023-03-22T06:32:35.789Z,93.70
2023-03-22T06:33:35.749Z,99.40
2023-03-22T06:34:35.782Z,94.60
2023-03-22T06:35:35.794Z,95.50
2023-03-22T06:36:35.754Z,92.00
2023-03-22T06:37:35.707Z,90.20
2023-03-22T06:38:35.714Z,95.90
2023-03-22T06:39:35.692Z,86.90
2023-03-22T06:40:35.713Z,82.20
2023-03-22T06:41:36.744Z,83.60
2023-03-22T06:42:35.675Z,79.40
2023-03-22T06:43:35.650Z,78.70
2023-03-22T06:44:35.647Z,80.20
2023-03-22T06:45:35.647Z,80.90
2023-03-22T06:46:35.676Z,78.30
2023-03-22T06:47:35.620Z,75.30
2023-03-22T06:48:35.603Z,76.60
2023-03-22T06:49:35.625Z,69.60
2023-03-22T06:50:35.581Z,73.00
2023-03-22T06:51:35.634Z,68.70
2023-03-22T06:52:35.569Z,70.50
2023-03-22T06:53:35.550Z,67.40
2023-03-22T06:54:35.549Z,62.10
2023-03-22T06:55:35.548Z,60.90
2023-03-22T06:56:35.618Z,64.00
2023-03-22T06:57:35.520Z,58.90
2023-03-22T06:58:35.507Z,60.10
2023-03-22T06:59:35.496Z,60.60
2023-03-22T07:00:35.489Z,55.10
2023-03-22T07:01:35.495Z,58.40
2023-03-22T07:02:35.501Z,58.80
2023-03-22T07:03:35.464Z,52.30
2023-03-22T07:04:35.461Z,57.40
2023-03-22T07:05:35.619Z,53.50
2023-03-22T07:06:35.437Z,52.30
2023-03-22T07:07:35.463Z,53.80
2023-03-22T07:08:35.449Z,50.20
2023-03-22T07:09:35.416Z,50.70
2023-03-22T07:10:35.412Z,47.20
2023-03-22T07:11:35.406Z,47.70
2023-03-22T07:12:35.415Z,48.00
2023-03-22T07:13:35.386Z,45.70
2023-03-22T07:14:35.364Z,49.10
2023-03-22T07:15:35.408Z,48.40
2023-03-22T07:16:35.335Z,44.80
2023-03-22T07:17:35.356Z,45.30
2023-03-22T07:18:35.310Z,45.90
2023-03-22T07:19:35.311Z,45.70
2023-03-22T07:20:35.303Z,44.10
2023-03-22T07:21:35.295Z,40.40
2023-03-22T07:22:35.300Z,40.30
2023-03-22T07:23:35.280Z,43.30
2023-03-22T07:24:37.192Z,38.60
2023-03-22T07:25:36.246Z,40.90
2023-03-22T07:26:35.239Z,36.90
2023-03-22T07:27:35.255Z,40.10
2023-03-22T07:28:35.234Z,36.80
2023-03-22T07:29:35.206Z,36.50
2023-03-22T07:30:35.225Z,35.80
2023-03-22T07:31:35.183Z,36.30
2023-03-22T07:32:35.248Z,32.80
2023-03-22T07:33:35.214Z,35.90
2023-03-22T07:34:35.157Z,31.50
2023-03-22T07:35:35.242Z,30.40
2023-03-22T07:36:35.144Z,33.30
2023-03-22T07:37:35.144Z,32.10
2023-03-22T07:38:35.129Z,31.20
2023-03-22T07:39:35.121Z,32.00
2023-03-22T07:40:35.125Z,28.70
2023-03-22T07:41:35.091Z,29.70
2023-03-22T07:42:35.138Z,30.20
2023-03-22T07:43:47.304Z,27.70
2023-03-22T07:44:37.065Z,26.80
2023-03-22T07:45:35.078Z,25.00
2023-03-22T07:46:35.076Z,24.00
2023-03-22T07:47:41.042Z,23.10
2023-03-22T07:48:37.036Z,25.50
2023-03-22T07:49:35.015Z,23.10
2023-03-22T07:50:35.055Z,25.20
2023-03-22T07:51:34.998Z,27.20
2023-03-22T07:52:35.045Z,24.10
2023-03-22T07:53:34.988Z,22.50
2023-03-22T07:54:34.985Z,22.20
2023-03-22T07:55:34.972Z,22.90
2023-03-22T07:56:34.957Z,24.50
2023-03-22T07:57:34.952Z,24.30
2023-03-22T07:58:34.932Z,24.20
2023-03-22T07:59:34.919Z,21.30
2023-03-22T08:00:34.915Z,24.80
2023-03-22T08:01:34.995Z,22.30
2023-03-22T08:02:34.927Z,22.30
2023-03-22T08:03:34.900Z,21.80
2023-03-22T08:04:34.886Z,21.70
2023-03-22T08:05:34.864Z,21.90
2023-03-22T08:06:34.841Z,22.00
2023-03-22T08:07:35.879Z,20.70
2023-03-22T08:08:34.844Z,23.40
2023-03-22T08:09:34.820Z,20.10
2023-03-22T08:10:34.944Z,20.60
2023-03-22T08:11:34.809Z,25.00
2023-03-22T08:12:34.825Z,20.30
2023-03-22T08:13:34.782Z,20.30
2023-03-22T08:14:36.825Z,23.30
2023-03-22T08:15:35.784Z,21.30
2023-03-22T08:16:34.790Z,20.60
2023-03-22T08:17:34.762Z,23.10
2023-03-22T08:18:34.738Z,22.70
2023-03-22T08:19:34.722Z,23.40
2023-03-22T08:20:34.717Z,21.10
2023-03-22T08:21:34.710Z,20.70
2023-03-22T08:22:34.728Z,22.50
2023-03-22T08:23:41.796Z,21.90
2023-03-22T08:24:36.681Z,21.20
2023-03-22T08:25:34.669Z,20.20
2023-03-22T08:26:34.658Z,21.00
2023-03-22T08:27:34.691Z,19.50
2023-03-22T08:28:34.643Z,22.60
2023-03-22T08:29:34.641Z,23.00
2023-03-22T08:30:34.621Z,19.80
2023-03-22T08:31:34.633Z,22.40
2023-03-22T08:32:34.617Z,20.10
2023-03-22T08:33:34.596Z,20.10
2023-03-22T08:34:34.622Z,20.40
2023-03-22T08:35:34.574Z,22.30
2023-03-22T08:36:34.553Z,19.90
2023-03-22T08:37:34.566Z,23.00
2023-03-22T08:38:34.539Z,17.40
2023-03-22T08:39:34.540Z,20.80
2023-03-22T08:40:34.594Z,20.40
2023-03-22T08:41:34.513Z,20.90
2023-03-22T08:42:34.535Z,21.40
2023-03-22T08:43:34.488Z,21.20
2023-03-22T08:44:34.481Z,17.60
2023-03-22T08:45:34.470Z,20.80
2023-03-22T08:46:34.537Z,20.00
2023-03-22T08:47:34.470Z,18.70
2023-03-22T08:48:34.437Z,18.60
2023-03-22T08:49:34.454Z,20.30
2023-03-22T08:50:34.455Z,20.20
2023-03-22T08:51:34.424Z,17.70
2023-03-22T08:52:34.434Z,17.20
2023-03-22T08:53:34.419Z,16.70
2023-03-22T08:54:35.017Z,18.90
2023-03-22T08:55:34.368Z,18.10
2023-03-22T08:56:34.367Z,18.00
2023-03-22T08:57:34.692Z,19.90
2023-03-22T08:58:35.340Z,19.20
2023-03-22T08:59:34.357Z,17.20
2023-03-22T09:00:47.780Z,18.10
2023-03-22T09:01:36.431Z,16.60
2023-03-22T09:02:34.349Z,18.10
2023-03-22T09:03:34.291Z,15.00
2023-03-22T09:04:34.311Z,16.20
2023-03-22T09:05:34.277Z,17.60
2023-03-22T09:06:34.265Z,17.00
2023-03-22T09:07:34.273Z,19.10
2023-03-22T09:08:34.234Z,16.80
2023-03-22T09:09:35.236Z,15.70
2023-03-22T09:10:34.229Z,15.30
2023-03-22T09:11:34.214Z,17.80
2023-03-22T09:12:34.229Z,14.40
2023-03-22T09:13:34.198Z,17.90
2023-03-22T09:14:34.191Z,13.30
2023-03-22T09:15:34.201Z,13.20
2023-03-22T09:16:34.935Z,14.60
2023-03-22T09:17:34.152Z,15.40
2023-03-22T09:18:34.174Z,18.00
2023-03-22T09:19:35.294Z,18.40
2023-03-22T09:20:34.156Z,15.50
2023-03-22T09:21:34.145Z,18.70
2023-03-22T09:22:34.111Z,15.90
2023-03-22T09:23:34.110Z,14.50
2023-03-22T09:24:34.078Z,15.20
2023-03-22T09:25:34.084Z,14.20
2023-03-22T09:26:34.072Z,17.80
2023-03-22T09:27:34.059Z,14.60
2023-03-22T09:28:34.074Z,15.20
2023-03-22T09:29:34.033Z,15.10
2023-03-22T09:30:34.056Z,17.50
2023-03-22T09:31:34.100Z,15.70
2023-03-22T09:32:34.749Z,14.60
2023-03-22T09:33:33.992Z,14.60
2023-03-22T09:34:33.986Z,18.10
2023-03-22T09:35:33.998Z,14.80
2023-03-22T09:36:33.960Z,14.60
2023-03-22T09:37:33.970Z,12.60
2023-03-22T09:38:34.014Z,15.10
2023-03-22T09:39:33.922Z,16.50
2023-03-22T09:40:33.933Z,14.10
2023-03-22T09:41:33.916Z,15.80
2023-03-22T09:42:33.945Z,12.70
2023-03-22T09:43:33.891Z,14.10
2023-03-22T09:44:33.883Z,15.90
2023-03-22T09:45:33.874Z,14.80
2023-03-22T09:46:33.929Z,15.30
2023-03-22T09:47:44.476Z,14.30
2023-03-22T09:48:35.855Z,17.70
2023-03-22T09:49:46.943Z,15.00
2023-03-22T09:50:35.828Z,15.20
2023-03-22T09:51:33.815Z,14.50
2023-03-22T09:52:33.860Z,14.90
2023-03-22T09:53:33.802Z,15.40
2023-03-22T09:54:33.797Z,14.20
2023-03-22T09:55:33.788Z,13.70
2023-03-22T09:56:33.762Z,13.20
2023-03-22T09:57:33.761Z,15.80
2023-03-22T09:58:33.769Z,14.00
2023-03-22T09:59:33.745Z,12.80
2023-03-22T10:00:33.867Z,11.90
2023-03-22T10:01:34.051Z,13.10
2023-03-22T10:02:33.759Z,14.80
2023-03-22T10:03:33.775Z,12.80
2023-03-22T10:04:33.737Z,17.60
2023-03-22T10:05:33.709Z,15.50
2023-03-22T10:06:33.671Z,14.60
2023-03-22T10:07:46.703Z,11.90
2023-03-22T10:08:33.648Z,15.50
2023-03-22T10:09:33.634Z,14.80
2023-03-22T10:10:33.644Z,14.60
2023-03-22T10:11:33.636Z,14.40
2023-03-22T10:12:33.615Z,13.70
2023-03-22T10:13:33.648Z,13.50
2023-03-22T10:14:33.585Z,12.40
2023-03-22T10:15:33.574Z,11.80
2023-03-22T10:16:33.600Z,12.50
2023-03-22T10:17:33.559Z,15.50
2023-03-22T10:18:33.569Z,15.10
2023-03-22T10:19:33.534Z,11.40
2023-03-22T10:20:34.560Z,15.90
2023-03-22T10:21:33.528Z,12.00
2023-03-22T10:22:33.519Z,13.00
2023-03-22T10:23:33.556Z,15.30
2023-03-22T10:24:33.496Z,13.90
2023-03-22T10:25:33.483Z,15.60
2023-03-22T10:26:33.492Z,11.20
2023-03-22T10:27:33.457Z,15.20
2023-03-22T10:28:33.465Z,10.40
2023-03-22T10:29:33.447Z,10.90
2023-03-22T10:30:33.440Z,11.30
2023-03-22T10:31:33.488Z,11.80
2023-03-22T10:32:33.424Z,11.80
2023-03-22T10:33:33.477Z,14.70
2023-03-22T10:34:33.391Z,11.70
2023-03-22T10:35:33.425Z,10.80
2023-03-22T10:36:33.372Z,10.10
2023-03-22T10:37:33.375Z,9.70
2023-03-22T10:38:33.441Z,13.90
2023-03-22T10:39:33.346Z,12.70
2023-03-22T10:40:33.336Z,12.50
2023-03-22T10:41:33.347Z,9.30
2023-03-22T10:42:33.317Z,12.20
2023-03-22T10:43:33.299Z,11.40
2023-03-22T10:44:33.323Z,10.30
2023-03-22T10:45:33.280Z,11.20
2023-03-22T10:46:33.298Z,10.00
2023-03-22T10:47:33.261Z,12.70
2023-03-22T10:48:33.495Z,9.40
2023-03-22T10:49:33.307Z,12.40
2023-03-22T10:50:33.239Z,13.80
2023-03-22T10:51:33.256Z,9.20
2023-03-22T10:52:33.211Z,10.20
2023-03-22T10:53:33.217Z,10.60
2023-03-22T10:54:33.190Z,11.40
2023-03-22T10:55:33.223Z,11.20
2023-03-22T10:56:33.180Z,13.10
2023-03-22T10:57:33.176Z,11.00
2023-03-22T10:58:33.181Z,12.60
2023-03-22T10:59:33.144Z,8.60
2023-03-22T11:00:33.183Z,11.90
2023-03-22T11:01:33.279Z,11.60
2023-03-22T11:02:33.222Z,10.70
2023-03-22T11:03:33.101Z,11.10
2023-03-22T11:04:33.097Z,9.30
2023-03-22T11:05:33.091Z,9.60
2023-03-22T11:06:33.085Z,8.90
2023-03-22T11:07:33.068Z,11.20
2023-03-22T11:08:33.078Z,10.30
2023-03-22T11:09:33.050Z,13.40
2023-03-22T11:10:33.163Z,11.40
2023-03-22T11:11:33.051Z,9.20
2023-03-22T11:12:33.027Z,13.90
2023-03-22T11:13:33.029Z,9.10
2023-03-22T11:14:33.005Z,10.60
2023-03-22T11:15:32.993Z,7.00
2023-03-22T11:16:33.030Z,8.10
2023-03-22T11:17:32.971Z,10.60
2023-03-22T11:18:32.983Z,10.10
2023-03-22T11:19:32.948Z,9.80
2023-03-22T11:20:33.015Z,11.30
2023-03-22T11:21:32.963Z,9.80
2023-03-22T11:22:32.915Z,8.60
2023-03-22T11:23:32.941Z,9.50
2023-03-22T11:24:32.937Z,10.00
2023-03-22T11:25:32.897Z,10.10
2023-03-22T11:26:33.267Z,8.90
2023-03-22T11:27:32.913Z,11.00
2023-03-22T11:28:32.878Z,11.10
2023-03-22T11:29:32.848Z,9.20
2023-03-22T11:30:32.839Z,7.70
2023-03-22T11:31:32.849Z,7.80
2023-03-22T11:32:32.886Z,9.90
2023-03-22T11:33:32.833Z,9.60
2023-03-22T11:34:32.845Z,9.30
2023-03-22T11:35:32.822Z,11.20
2023-03-22T11:36:32.790Z,10.80
2023-03-22T11:37:32.782Z,9.90
2023-03-22T11:38:32.782Z,11.40
2023-03-22T11:39:32.748Z,9.60
2023-03-22T11:40:32.765Z,9.70
2023-03-22T11:41:32.737Z,11.10
2023-03-22T11:42:32.736Z,10.70
2023-03-22T11:43:32.807Z,10.60
2023-03-22T11:44:32.712Z,11.70
2023-03-22T11:45:32.696Z,9.80
2023-03-22T11:46:33.708Z,11.20
2023-03-22T11:47:33.684Z,9.60
2023-03-22T11:48:32.851Z,11.10
2023-03-22T11:49:32.675Z,9.00
2023-03-22T11:50:32.771Z,10.60
2023-03-22T11:51:32.649Z,10.80
2023-03-22T11:52:32.661Z,12.10
2023-03-22T11:53:32.634Z,9.60
2023-03-22T11:54:32.611Z,11.10
2023-03-22T11:55:32.615Z,10.80
2023-03-22T11:56:32.596Z,10.10
2023-03-22T11:57:32.579Z,10.10
2023-03-22T11:58:32.585Z,15.50
2023-03-22T11:59:32.562Z,12.50
2023-03-22T12:00:32.552Z,13.80
2023-03-22T12:01:32.548Z,10.50
2023-03-22T12:02:32.648Z,13.70
2023-03-22T12:03:32.734Z,11.50
2023-03-22T12:04:32.579Z,9.50
2023-03-22T12:05:32.498Z,10.50
2023-03-22T12:06:32.543Z,11.00
2023-03-22T12:07:32.478Z,9.80
2023-03-22T12:08:32.511Z,10.00
2023-03-22T12:09:32.462Z,12.50
2023-03-22T12:10:32.449Z,10.80
2023-03-22T12:11:32.443Z,7.50
2023-03-22T12:12:32.430Z,11.40
2023-03-22T12:13:32.435Z,11.00
2023-03-22T12:14:32.417Z,11.40
2023-03-22T12:15:32.397Z,11.20
2023-03-22T12:16:32.435Z,8.90
2023-03-22T12:17:32.432Z,8.30
2023-03-22T12:18:32.423Z,9.80
2023-03-22T12:19:32.360Z,9.70
2023-03-22T12:20:32.366Z,9.30
2023-03-22T12:21:32.377Z,9.60
2023-03-22T12:22:32.343Z,11.20
2023-03-22T12:23:32.347Z,9.30
2023-03-22T12:24:32.305Z,10.40
2023-03-22T12:25:32.312Z,8.20
2023-03-22T12:26:32.287Z,8.10
2023-03-22T12:27:32.280Z,9.00
2023-03-22T12:28:32.292Z,8.00
2023-03-22T12:29:32.273Z,8.00
2023-03-22T12:30:32.261Z,4.60
2023-03-22T12:31:32.291Z,6.60
2023-03-22T12:32:32.275Z,5.70
2023-03-22T12:33:32.254Z,5.00
2023-03-22T12:34:32.220Z,5.40
2023-03-22T12:35:32.209Z,4.40
2023-03-22T12:36:32.201Z,6.80
2023-03-22T12:37:32.190Z,6.40
2023-03-22T12:38:32.219Z,6.10
2023-03-22T12:39:32.170Z,7.60
2023-03-22T12:40:32.174Z,4.90
2023-03-22T12:41:32.146Z,7.40
2023-03-22T12:42:34.702Z,9.80
2023-03-22T12:43:33.141Z,6.90
2023-03-22T12:44:32.127Z,7.60
2023-03-22T12:45:32.118Z,8.40
2023-03-22T12:46:32.124Z,8.70
2023-03-22T12:47:32.134Z,8.90